Time;durP1;ratioP1;P1;durP2;ratioP2;P2;SDS_P1;SDS_P2;PMS_P1;PMS_P2;Temp;Humidity;BMP_temperature;BMP_pressure;BME280_temperature;BME280_humidity;BME280_pressure;Samples;Min_cycle;Max_cycle;Signal;HPM_P1;HPM_P2
2023/07/22 00:01:48;;;;;;;4.90;2.58;;;;;;;28.81;42.27;98675.84;5092332;28;20032;-67
2023/07/22 00:04:14;;;;;;;7.65;2.88;;;;;;;28.84;42.74;98683.44;5075085;28;20508;-66
2023/07/22 00:06:39;;;;;;;4.00;2.50;;;;;;;28.80;42.32;98690.34;5092190;28;20051;-66
2023/07/22 00:09:05;;;;;;;5.95;2.60;;;;;;;28.76;42.41;98694.56;5075543;28;20074;-66
2023/07/22 00:11:31;;;;;;;7.80;2.42;;;;;;;28.80;42.24;98696.53;5092154;28;20028;-66
2023/07/22 00:13:56;;;;;;;5.38;2.90;;;;;;;28.77;42.76;98683.56;5058449;28;20055;-67
2023/07/22 00:16:22;;;;;;;5.32;2.70;;;;;;;28.74;42.53;98685.94;5075507;28;20024;-67
2023/07/22 00:18:47;;;;;;;6.88;2.47;;;;;;;28.72;42.53;98683.47;5091401;28;20055;-67
2023/07/22 00:21:13;;;;;;;5.97;2.65;;;;;;;28.74;42.75;98684.06;5091873;28;20403;-67
2023/07/22 00:23:39;;;;;;;7.22;2.30;;;;;;;28.64;42.83;98670.41;5092655;28;20031;-67
2023/07/22 00:26:04;;;;;;;4.82;2.65;;;;;;;28.63;42.97;98679.53;5075146;28;20017;-67
2023/07/22 00:28:30;;;;;;;8.48;2.90;;;;;;;28.60;43.00;98678.13;5075015;28;20467;-67
2023/07/22 00:30:57;;;;;;;5.68;2.55;;;;;;;28.58;43.18;98680.22;5092172;28;20467;-67
2023/07/22 00:33:23;;;;;;;7.22;2.47;;;;;;;28.51;43.68;98685.69;5091714;28;20123;-67
2023/07/22 00:35:52;;;;;;;4.65;2.80;;;;;;;28.47;43.58;98681.84;5091836;28;20111;-67
2023/07/22 00:38:18;;;;;;;7.20;3.05;;;;;;;28.39;44.00;98666.09;5091809;28;20055;-67
2023/07/22 00:40:44;;;;;;;5.85;2.65;;;;;;;28.36;43.92;98657.69;5057661;28;20411;-67
2023/07/22 00:43:10;;;;;;;4.63;2.63;;;;;;;28.34;43.66;98656.06;5057828;28;20070;-67
2023/07/22 00:45:36;;;;;;;6.97;3.00;;;;;;;28.36;43.70;98661.19;5091512;28;20031;-67
2023/07/22 00:48:02;;;;;;;5.60;2.60;;;;;;;28.32;43.71;98663.53;5090680;28;20087;-67
2023/07/22 00:50:28;;;;;;;5.55;2.85;;;;;;;28.27;44.09;98671.44;5091370;28;20505;-66
2023/07/22 00:52:53;;;;;;;6.55;2.70;;;;;;;28.26;44.03;98672.53;5074506;28;20032;-67
2023/07/22 00:55:19;;;;;;;4.63;2.67;;;;;;;28.21;44.09;98677.78;5090855;28;20040;-66
2023/07/22 00:57:45;;;;;;;3.95;2.55;;;;;;;28.20;44.51;98672.66;5091805;28;20024;-67
2023/07/22 01:00:12;;;;;;;4.95;2.53;;;;;;;28.15;44.42;98662.63;5074511;28;20497;-67
2023/07/22 01:02:39;;;;;;;4.93;2.90;;;;;;;28.10;44.37;98660.63;5092988;28;20399;-67
2023/07/22 01:05:05;;;;;;;4.22;2.80;;;;;;;28.11;44.42;98661.44;5091217;28;20059;-67
2023/07/22 01:07:31;;;;;;;7.85;3.05;;;;;;;28.08;44.49;98648.47;5074240;28;20036;-66
2023/07/22 01:09:56;;;;;;;5.78;2.67;;;;;;;28.10;44.64;98657.09;5091302;28;20093;-66
2023/07/22 01:12:22;;;;;;;8.35;2.70;;;;;;;28.11;44.38;98661.44;5074603;28;20095;-67
2023/07/22 01:14:47;;;;;;;6.50;3.00;;;;;;;28.08;44.40;98659.22;5092402;28;20101;-67
2023/07/22 01:17:13;;;;;;;5.63;2.92;;;;;;;28.06;44.62;98664.00;5073951;28;20075;-66
2023/07/22 01:19:38;;;;;;;6.95;3.03;;;;;;;28.01;44.56;98662.03;5074402;28;20032;-66
2023/07/22 01:22:07;;;;;;;7.47;2.78;;;;;;;28.00;44.50;98662.25;5074664;28;20028;-67
2023/07/22 01:24:32;;;;;;;6.20;2.80;;;;;;;27.97;44.77;98661.69;5091171;28;20043;-66
2023/07/22 01:26:58;;;;;;;5.90;2.90;;;;;;;27.94;44.85;98661.28;5073597;28;20032;-66
2023/07/22 01:29:24;;;;;;;4.88;2.97;;;;;;;27.90;45.13;98670.84;5090557;28;20075;-66
2023/07/22 01:31:51;;;;;;;7.57;3.17;;;;;;;27.86;45.06;98665.09;5090622;28;20039;-67
2023/07/22 01:34:16;;;;;;;5.00;2.60;;;;;;;27.82;45.09;98655.91;5076453;28;20119;-66
2023/07/22 01:36:43;;;;;;;6.13;2.92;;;;;;;27.79;45.14;98664.41;5078084;28;20076;-66
2023/07/22 01:39:08;;;;;;;6.00;2.95;;;;;;;27.78;45.32;98666.28;5078246;28;20060;-67
2023/07/22 01:41:34;;;;;;;4.50;2.95;;;;;;;27.71;45.41;98673.59;5095195;28;20095;-66
2023/07/22 01:43:59;;;;;;;8.02;2.97;;;;;;;27.70;45.51;98677.31;5077792;28;20032;-66
2023/07/22 01:46:25;;;;;;;6.20;3.00;;;;;;;27.65;45.44;98677.22;5094922;28;20031;-67
2023/07/22 01:48:51;;;;;;;6.68;2.80;;;;;;;27.66;45.69;98686.91;5094846;28;20024;-66
2023/07/22 01:51:16;;;;;;;4.70;2.70;;;;;;;27.59;45.80;98697.69;5095971;28;20027;-67
2023/07/22 01:53:41;;;;;;;4.97;2.70;;;;;;;27.59;45.87;98699.56;5077574;28;20036;-67
2023/07/22 01:56:07;;;;;;;5.90;2.90;;;;;;;27.55;46.18;98703.78;5078049;28;20024;-67
2023/07/22 01:58:33;;;;;;;7.40;2.90;;;;;;;27.52;46.04;98688.94;5094803;28;20063;-67
2023/07/22 02:00:59;;;;;;;6.95;3.10;;;;;;;27.50;46.02;98671.44;5094982;28;20089;-66
2023/07/22 02:03:24;;;;;;;7.45;3.30;;;;;;;27.44;46.04;98663.28;5077522;28;20570;-68
2023/07/22 02:05:50;;;;;;;5.28;2.90;;;;;;;27.47;46.22;98667.38;5060952;28;20035;-67
2023/07/22 02:08:15;;;;;;;7.55;2.90;;;;;;;27.50;46.10;98663.41;5094125;28;20075;-67
2023/07/22 02:10:41;;;;;;;6.82;2.80;;;;;;;27.44;45.98;98662.47;5095795;28;20032;-66
2023/07/22 02:13:07;;;;;;;9.07;3.35;;;;;;;27.47;45.89;98663.88;5077620;28;20036;-67
2023/07/22 02:15:32;;;;;;;7.40;3.17;;;;;;;27.50;45.95;98660.72;5095962;28;20024;-67
2023/07/22 02:17:58;;;;;;;7.22;3.00;;;;;;;27.47;45.82;98655.81;5095943;28;20391;-67
2023/07/22 02:20:26;;;;;;;4.70;3.10;;;;;;;27.52;46.23;98670.19;5060499;28;20105;-67
2023/07/22 02:22:51;;;;;;;;;;;;;;;27.53;46.12;98671.00;5078327;28;20543;-67
2023/07/22 02:25:17;;;;;;;6.20;2.90;;;;;;;27.49;46.29;98670.63;5094291;28;20006;-67
2023/07/22 02:27:43;;;;;;;5.13;2.42;;;;;;;27.50;46.17;98677.66;5094281;28;20039;-68
2023/07/22 02:30:12;;;;;;;5.43;3.08;;;;;;;27.49;46.12;98675.19;5094463;28;20027;-68
2023/07/22 02:32:40;;;;;;;12.35;2.97;;;;;;;27.51;46.04;98683.81;5094574;28;20024;-67
2023/07/22 02:35:07;;;;;;;6.75;3.08;;;;;;;27.46;46.42;98683.69;5076637;28;20098;-66
2023/07/22 02:37:34;;;;;;;7.60;2.70;;;;;;;27.44;46.38;98683.91;5094330;28;20035;-68
2023/07/22 02:39:59;;;;;;;5.93;3.03;;;;;;;27.39;46.27;98683.75;5077133;28;20111;-67
2023/07/22 02:42:25;;;;;;;5.18;2.58;;;;;;;27.38;46.15;98674.91;5059820;28;20040;-67
2023/07/22 02:44:50;;;;;;;8.07;2.88;;;;;;;27.45;46.46;98669.44;5076699;28;20036;-68
2023/07/22 02:47:16;;;;;;;8.95;3.03;;;;;;;27.48;46.15;98679.72;5076482;28;20485;-67
2023/07/22 02:49:41;;;;;;;8.68;2.65;;;;;;;27.44;46.38;98673.19;5093846;28;20039;-66
2023/07/22 02:52:07;;;;;;;3.92;2.70;;;;;;;27.46;46.46;98686.38;5076957;28;20067;-67
2023/07/22 02:54:39;;;;;;;8.98;3.10;;;;;;;27.38;46.47;98676.78;5093645;28;20154;-67
2023/07/22 02:57:05;;;;;;;14.35;3.35;;;;;;;27.51;46.67;98692.66;5093797;28;20032;-65
2023/07/22 02:59:30;;;;;;;12.50;2.92;;;;;;;27.61;47.10;98692.94;5093745;28;20502;-68
2023/07/22 03:01:57;;;;;;;6.63;2.72;;;;;;;27.72;46.21;98688.66;5069650;28;20091;-67
2023/07/22 03:04:23;;;;;;;28.58;3.65;;;;;;;27.87;46.14;98680.16;5055200;28;20053;-68
2023/07/22 03:06:48;;;;;;;15.30;3.13;;;;;;;27.91;45.98;98673.31;5057030;28;20471;-67
2023/07/22 03:09:14;;;;;;;15.55;3.40;;;;;;;27.94;45.83;98661.28;5056727;28;20033;-66
2023/07/22 03:11:39;;;;;;;7.07;2.60;;;;;;;28.11;45.50;98662.25;5061100;28;20044;-66
2023/07/22 03:14:05;;;;;;;5.03;2.88;;;;;;;28.25;45.04;98672.75;5088342;28;20036;-67
2023/07/22 03:16:31;;;;;;;12.13;3.03;;;;;;;28.35;44.87;98681.03;5076016;28;20028;-70
2023/07/22 03:18:57;;;;;;;6.55;3.30;;;;;;;28.45;44.64;98673.22;5076183;28;20047;-69
2023/07/22 03:21:23;;;;;;;6.13;3.25;;;;;;;28.55;45.11;98658.38;5093308;28;20032;-70
2023/07/22 03:23:49;;;;;;;11.05;3.20;;;;;;;28.74;44.53;98665.25;5094410;28;20028;-70
2023/07/22 03:26:14;;;;;;;8.77;3.05;;;;;;;28.94;44.08;98664.84;5094249;28;20020;-72
2023/07/22 03:28:41;;;;;;;13.48;3.45;;;;;;;29.20;44.10;98660.78;5093053;28;20052;-71
2023/07/22 03:31:08;;;;;;;7.72;3.25;;;;;;;29.47;42.95;98648.63;5076445;28;20032;-76
2023/07/22 03:33:34;;;;;;;10.97;4.27;;;;;;;29.78;42.70;98674.19;5093223;28;20041;-76
2023/07/22 03:36:00;;;;;;;19.50;4.43;;;;;;;30.15;42.13;98672.88;5076493;28;20032;-74
2023/07/22 03:38:25;;;;;;;17.95;3.50;;;;;;;30.49;40.96;98668.28;5092545;28;20044;-74
2023/07/22 03:40:53;;;;;;;11.52;3.83;;;;;;;30.78;40.41;98665.41;5059747;28;20089;-78
2023/07/22 03:43:18;;;;;;;8.05;3.50;;;;;;;30.96;39.81;98673.22;5093019;28;20032;-80
2023/07/22 03:45:44;;;;;;;11.73;3.60;;;;;;;31.11;39.09;98677.94;5093215;28;20059;-83
2023/07/22 03:48:09;;;;;;;8.88;3.17;;;;;;;31.32;38.60;98684.38;5072112;28;20419;-76
2023/07/22 03:50:35;;;;;;;10.90;2.90;;;;;;;31.58;38.16;98692.75;5088608;28;20061;-83
2023/07/22 03:53:00;;;;;;;5.70;2.78;;;;;;;31.85;37.54;98694.56;5075216;28;20053;-75
2023/07/22 03:55:26;;;;;;;5.95;3.38;;;;;;;32.22;36.55;98691.91;5075887;28;20050;-74
2023/07/22 03:57:51;;;;;;;6.93;2.50;;;;;;;32.57;36.05;98687.00;5093856;28;20502;-76
2023/07/22 04:00:17;;;;;;;8.60;2.70;;;;;;;32.92;35.20;98691.75;5092567;28;20036;-75
2023/07/22 04:02:42;;;;;;;4.70;2.40;;;;;;;33.24;34.72;98687.28;5092686;28;20423;-75
2023/07/22 04:05:08;;;;;;;7.50;2.78;;;;;;;33.59;33.91;98694.66;5092218;28;20415;-76
2023/07/22 04:07:34;;;;;;;7.40;2.80;;;;;;;34.01;32.92;98695.50;5092166;28;20028;-76
2023/07/22 04:09:59;;;;;;;7.03;2.95;;;;;;;34.33;32.88;98695.22;5091630;28;20044;-76
2023/07/22 04:12:25;;;;;;;6.35;2.80;;;;;;;34.76;32.17;98697.53;5075275;28;20086;-76
2023/07/22 04:14:50;;;;;;;5.72;2.67;;;;;;;35.16;31.64;98693.03;5092050;28;20040;-76
2023/07/22 04:17:16;;;;;;;6.68;2.78;;;;;;;35.56;30.82;98703.91;5075473;28;20066;-76
2023/07/22 04:19:43;;;;;;;4.85;2.63;;;;;;;35.95;30.01;98694.97;5093069;28;20028;-76
2023/07/22 04:22:08;;;;;;;9.65;2.60;;;;;;;36.38;29.57;98697.81;5091888;28;20024;-75
2023/07/22 04:24:33;;;;;;;6.30;2.60;;;;;;;36.80;29.05;98690.00;5091141;28;20078;-75
2023/07/22 04:27:00;;;;;;;7.75;2.60;;;;;;;37.12;28.52;98686.63;5091297;28;20039;-75
2023/07/22 04:29:25;;;;;;;5.23;2.47;;;;;;;37.56;27.45;98690.88;5092126;28;20036;-74
2023/07/22 04:31:51;;;;;;;10.48;2.67;;;;;;;38.01;27.19;98695.88;5091960;28;20277;-75
2023/07/22 04:34:16;;;;;;;6.28;2.78;;;;;;;38.47;26.46;98707.88;5092913;28;20028;-75
2023/07/22 04:36:43;;;;;;;5.78;2.58;;;;;;;38.86;26.19;98691.03;5092913;28;20028;-75
2023/07/22 04:39:08;;;;;;;5.50;2.20;;;;;;;39.26;25.76;98696.72;5091443;28;20020;-75
2023/07/22 04:41:34;;;;;;;7.03;2.70;;;;;;;39.60;25.34;98689.97;5091190;28;20040;-75
2023/07/22 04:43:59;;;;;;;4.05;2.25;;;;;;;40.04;24.77;98698.44;5091188;28;20028;-75
2023/07/22 04:46:25;;;;;;;11.05;2.53;;;;;;;40.43;24.59;98699.59;5074090;28;20111;-75
2023/07/22 04:48:54;;;;;;;7.87;2.60;;;;;;;40.95;23.77;98695.44;5091633;28;20032;-75
2023/07/22 04:51:19;;;;;;;7.65;2.20;;;;;;;41.37;23.19;98702.09;5090964;28;20070;-75
2023/07/22 04:53:45;;;;;;;7.43;2.30;;;;;;;41.75;22.78;98706.09;5091080;28;20063;-75
2023/07/22 04:56:10;;;;;;;4.93;2.42;;;;;;;42.16;22.10;98706.69;5074415;28;20503;-75
2023/07/22 04:58:36;;;;;;;6.85;2.42;;;;;;;42.47;21.89;98696.22;5092646;28;20035;-75
2023/07/22 05:01:01;;;;;;;5.78;2.30;;;;;;;42.78;21.43;98689.63;5091197;28;20028;-75
2023/07/22 05:03:27;;;;;;;4.97;2.28;;;;;;;43.12;20.88;98693.28;5092322;28;20043;-75
2023/07/22 05:05:52;;;;;;;5.57;2.20;;;;;;;43.51;20.49;98695.91;5090709;28;20040;-75
2023/07/22 05:08:18;;;;;;;6.47;2.13;;;;;;;43.92;19.63;98688.72;5107060;28;20040;-74
2023/07/22 05:10:43;;;;;;;4.77;1.83;;;;;;;44.30;19.28;98697.81;5074253;28;20039;-75
2023/07/22 05:13:09;;;;;;;4.83;1.97;;;;;;;44.60;19.04;98699.25;5091143;28;20028;-75
2023/07/22 05:15:34;;;;;;;10.03;2.40;;;;;;;44.91;18.83;98703.31;5092282;28;20028;-75
2023/07/22 05:18:00;;;;;;;5.37;1.97;;;;;;;45.21;18.54;98694.78;5091188;28;20028;-76
2023/07/22 05:20:25;;;;;;;6.67;2.30;;;;;;;45.51;18.47;98697.22;5091089;28;20089;-76
2023/07/22 05:22:51;;;;;;;5.33;2.13;;;;;;;45.84;17.75;98698.91;5090777;28;20028;-76
2023/07/22 05:25:16;;;;;;;9.90;2.43;;;;;;;46.19;17.80;98701.00;5090971;28;20036;-76
2023/07/22 05:27:42;;;;;;;5.83;2.10;;;;;;;46.40;17.49;98709.81;5092258;28;20027;-76
2023/07/22 05:30:08;;;;;;;5.70;1.80;;;;;;;46.67;17.29;98714.78;5092222;28;20533;-76
2023/07/22 05:32:33;;;;;;;4.22;1.90;;;;;;;46.90;17.57;98704.66;5108038;28;20054;-77
2023/07/22 05:34:59;;;;;;;6.37;2.30;;;;;;;47.18;17.07;98703.69;5091311;28;20340;-76
2023/07/22 05:37:24;;;;;;;4.87;2.00;;;;;;;47.35;16.94;98696.97;5090264;28;20032;-76
2023/07/22 05:39:50;;;;;;;6.20;1.97;;;;;;;47.49;16.57;98685.34;5073944;28;20441;-76
2023/07/22 05:42:16;;;;;;;5.37;2.00;;;;;;;47.60;16.44;98693.88;5091135;28;20027;-76
2023/07/22 05:44:41;;;;;;;7.78;2.38;;;;;;;47.66;15.95;98695.16;5090889;28;20487;-76
2023/07/22 05:47:07;;;;;;;5.50;2.00;;;;;;;47.85;16.05;98694.34;5073703;28;20460;-76
2023/07/22 05:49:32;;;;;;;5.37;1.97;;;;;;;47.96;15.79;98700.84;5073403;28;20070;-76
2023/07/22 05:51:58;;;;;;;5.53;2.03;;;;;;;48.10;15.81;98699.53;5090959;28;20054;-75
2023/07/22 05:54:24;;;;;;;6.80;2.20;;;;;;;48.20;15.93;98698.91;5090617;28;20025;-75
2023/07/22 05:56:49;;;;;;;10.50;2.60;;;;;;;48.31;15.68;98686.03;5090683;28;20507;-75
2023/07/22 05:59:15;;;;;;;4.13;1.60;;;;;;;48.35;15.84;98680.56;5073546;28;20501;-75
2023/07/22 06:01:40;;;;;;;4.43;2.00;;;;;;;48.47;15.96;98680.38;5073752;28;20024;-75
2023/07/22 06:04:06;;;;;;;7.67;2.20;;;;;;;48.54;15.29;98682.47;5073235;28;20395;-74
2023/07/22 06:06:31;;;;;;;7.23;1.97;;;;;;;48.53;15.56;98681.66;5073456;28;20071;-76
2023/07/22 06:08:57;;;;;;;5.35;2.25;;;;;;;48.56;15.55;98690.41;5090848;28;20074;-75
2023/07/22 06:11:22;;;;;;;4.90;2.17;;;;;;;48.54;15.71;98693.53;5090828;28;20093;-74
2023/07/22 06:13:48;;;;;;;6.97;2.07;;;;;;;48.64;15.47;98692.88;5090180;28;20040;-75
2023/07/22 06:16:13;;;;;;;7.77;2.37;;;;;;;48.62;15.29;98683.38;5107476;28;20089;-75
2023/07/22 06:18:39;;;;;;;8.73;2.40;;;;;;;48.67;15.44;98689.38;5091907;28;20459;-75
2023/07/22 06:21:05;;;;;;;6.55;2.17;;;;;;;48.71;15.30;98692.19;5077063;28;20024;-75
2023/07/22 06:23:30;;;;;;;9.47;2.33;;;;;;;48.72;15.86;98688.25;5094229;28;20508;-75
2023/07/22 06:25:56;;;;;;;9.57;2.60;;;;;;;48.72;15.84;98691.81;5077243;28;20472;-76
2023/07/22 06:28:21;;;;;;;4.30;2.00;;;;;;;48.77;15.41;98679.59;5094434;28;20024;-75
2023/07/22 06:30:47;;;;;;;7.10;2.47;;;;;;;48.88;15.60;98685.31;5094252;28;20036;-75
2023/07/22 06:33:12;;;;;;;8.33;2.50;;;;;;;47.40;16.72;98677.31;5094257;28;20115;-75
2023/07/22 06:35:38;;;;;;;5.47;2.33;;;;;;;47.73;16.54;98687.03;5095346;28;20032;-76
2023/07/22 06:38:03;;;;;;;9.43;2.40;;;;;;;47.88;16.11;98681.75;5110922;28;20024;-75
2023/07/22 06:40:29;;;;;;;8.17;2.50;;;;;;;47.99;16.27;98689.06;5094329;28;20047;-76
2023/07/22 06:42:54;;;;;;;10.40;2.17;;;;;;;48.05;15.76;98691.53;5093860;28;20123;-76
2023/07/22 06:45:20;;;;;;;7.00;2.67;;;;;;;48.04;16.00;98696.28;5095171;28;20065;-74
2023/07/22 06:47:46;;;;;;;6.50;2.30;;;;;;;48.05;16.31;98692.34;5092893;28;20449;-75
2023/07/22 06:50:12;;;;;;;5.40;2.38;;;;;;;48.18;16.24;98701.25;5094459;28;20024;-75
2023/07/22 06:52:37;;;;;;;5.80;2.10;;;;;;;48.21;16.03;98692.22;5093946;28;20031;-76
2023/07/22 06:55:03;;;;;;;6.40;2.30;;;;;;;48.20;16.44;98690.59;5077299;28;20028;-74
2023/07/22 06:57:29;;;;;;;10.23;2.55;;;;;;;48.18;16.20;98690.19;5093859;28;20028;-76
2023/07/22 06:59:54;;;;;;;8.07;2.67;;;;;;;48.13;16.45;98687.75;5079582;28;20442;-75
2023/07/22 07:02:20;;;;;;;6.63;2.30;;;;;;;48.06;16.64;98679.31;5094367;28;20036;-75
2023/07/22 07:04:46;;;;;;;8.07;2.42;;;;;;;48.09;16.20;98695.16;5093410;28;20479;-76
2023/07/22 07:07:12;;;;;;;11.17;2.93;;;;;;;48.03;16.71;98697.41;5093687;28;20043;-75
2023/07/22 07:09:38;;;;;;;6.72;2.42;;;;;;;47.92;16.54;98697.25;5093695;28;20116;-75
2023/07/22 07:12:04;;;;;;;9.20;2.90;;;;;;;47.79;16.70;98687.50;5075926;28;20413;-76
2023/07/22 07:14:29;;;;;;;10.60;3.00;;;;;;;47.73;16.89;98689.81;5093622;28;20024;-76
2023/07/22 07:16:54;;;;;;;6.23;2.83;;;;;;;47.66;16.97;98697.94;5093576;28;20032;-74
2023/07/22 07:19:20;;;;;;;8.50;3.10;;;;;;;47.61;17.08;98701.78;5110664;28;20525;-75
2023/07/22 07:21:45;;;;;;;12.20;2.80;;;;;;;47.51;17.26;98699.63;5094590;28;20106;-75
2023/07/22 07:24:11;;;;;;;10.43;2.67;;;;;;;47.43;16.92;98703.41;5093441;28;20448;-75
2023/07/22 07:26:36;;;;;;;8.93;2.57;;;;;;;47.29;17.09;98690.91;5076662;28;20063;-75
2023/07/22 07:29:02;;;;;;;8.40;2.60;;;;;;;47.24;17.24;98693.13;5093263;28;20032;-76
2023/07/22 07:31:27;;;;;;;7.63;2.97;;;;;;;47.16;17.88;98694.97;5092999;28;20035;-76
2023/07/22 07:33:53;;;;;;;7.37;2.80;;;;;;;47.14;17.70;98707.53;5110357;28;20032;-75
2023/07/22 07:36:18;;;;;;;7.30;2.80;;;;;;;47.00;17.85;98708.03;5092592;28;20415;-75
2023/07/22 07:38:44;;;;;;;10.80;3.03;;;;;;;46.93;18.32;98720.53;5093175;28;20161;-76
2023/07/22 07:41:11;;;;;;;7.23;2.60;;;;;;;46.91;17.77;98713.75;5109852;28;20043;-75
2023/07/22 07:43:37;;;;;;;9.40;3.03;;;;;;;46.91;18.32;98713.75;5092827;28;20031;-77
2023/07/22 07:46:21;;;;;;;8.63;2.70;;;;;;;46.81;18.46;98701.28;5092847;28;20027;-76
2023/07/22 07:48:51;;;;;;;7.10;2.92;;;;;;;46.88;17.82;98708.94;5076901;28;20037;-76
2023/07/22 07:51:18;;;;;;;7.82;2.80;;;;;;;46.79;18.36;98697.31;5076071;28;20030;-75
2023/07/22 07:53:49;;;;;;;;;;;;;;;46.57;18.53;98696.81;5076329;28;20039;-76
2023/07/22 07:56:15;;;;;;;5.43;2.63;;;;;;;46.49;18.44;98693.03;5092444;28;19939;-76
2023/07/22 07:58:41;;;;;;;14.82;3.08;;;;;;;46.36;18.53;98683.28;5076092;28;20039;-75
2023/07/22 08:01:07;;;;;;;7.27;3.27;;;;;;;46.30;18.78;98687.47;5092757;28;20040;-76
2023/07/22 08:03:33;;;;;;;8.07;2.70;;;;;;;46.21;18.28;98688.47;5092244;28;20433;-76
2023/07/22 08:05:58;;;;;;;8.02;2.83;;;;;;;46.19;18.39;98681.69;5075661;28;20113;-76
2023/07/22 08:08:24;;;;;;;8.00;3.17;;;;;;;46.12;18.27;98687.81;5091997;28;20032;-75
2023/07/22 08:11:05;;;;;;;7.60;3.30;;;;;;;46.02;18.60;98688.34;5108669;28;20058;-76
2023/07/22 08:13:31;;;;;;;10.27;3.47;;;;;;;45.98;19.31;98687.47;5091994;28;20040;-76
2023/07/22 08:16:01;;;;;;;6.88;3.25;;;;;;;45.92;19.63;98694.38;5093370;28;20032;-75
2023/07/22 08:18:26;;;;;;;10.52;3.40;;;;;;;45.84;19.19;98685.13;5075583;28;20036;-75
2023/07/22 08:20:52;;;;;;;10.13;3.10;;;;;;;45.80;19.07;98681.47;5092384;28;20028;-75
2023/07/22 08:23:18;;;;;;;7.63;3.25;;;;;;;45.73;19.15;98676.53;5075019;28;20032;-76
2023/07/22 08:25:44;;;;;;;6.85;2.90;;;;;;;45.69;19.25;98667.41;5093152;28;20553;-75
2023/07/22 08:28:09;;;;;;;9.93;3.00;;;;;;;45.72;19.69;98671.38;5091932;28;20027;-74
2023/07/22 08:30:35;;;;;;;8.27;3.10;;;;;;;45.67;19.55;98669.69;5093486;28;20028;-75
2023/07/22 08:33:00;;;;;;;7.00;3.10;;;;;;;45.55;18.91;98655.97;5108896;28;20028;-74
2023/07/22 08:35:26;;;;;;;6.00;3.00;;;;;;;45.48;19.50;98673.13;5091368;28;20044;-75
2023/07/22 08:37:52;;;;;;;8.00;3.57;;;;;;;45.38;19.79;98666.16;5108540;28;20391;-75
2023/07/22 08:40:18;;;;;;;6.93;3.07;;;;;;;45.28;19.37;98664.69;5108596;28;20032;-76
2023/07/22 08:42:43;;;;;;;7.97;3.20;;;;;;;45.20;19.19;98670.34;5090889;28;20053;-76
2023/07/22 08:45:09;;;;;;;12.00;3.23;;;;;;;45.12;19.52;98661.06;5091401;28;20044;-77
2023/07/22 08:47:35;;;;;;;7.60;3.23;;;;;;;45.02;19.59;98651.34;5074672;28;20032;-76
2023/07/22 08:50:01;;;;;;;12.33;3.43;;;;;;;44.92;19.94;98649.84;5091816;28;20062;-75
2023/07/22 08:52:27;;;;;;;8.25;3.50;;;;;;;44.82;20.08;98650.34;5074560;28;20470;-75
2023/07/22 08:54:52;;;;;;;12.27;3.23;;;;;;;44.73;20.27;98638.69;5108819;28;20064;-76
2023/07/22 08:57:18;;;;;;;7.37;3.30;;;;;;;44.65;20.56;98636.88;5074613;28;20050;-75
2023/07/22 08:59:44;;;;;;;9.43;3.07;;;;;;;44.60;20.47;98630.44;5091777;28;20035;-75
2023/07/22 09:02:13;;;;;;;10.13;3.20;;;;;;;44.54;20.45;98639.25;5091773;28;20270;-75
2023/07/22 09:04:40;;;;;;;7.40;3.17;;;;;;;44.42;20.45;98634.56;5091240;28;20044;-76
2023/07/22 09:07:06;;;;;;;11.35;3.10;;;;;;;44.37;20.83;98637.53;5074716;28;20059;-73
2023/07/22 09:09:32;;;;;;;5.27;2.90;;;;;;;44.26;21.05;98634.44;5092509;28;20059;-75
2023/07/22 09:11:58;;;;;;;8.80;3.50;;;;;;;44.20;21.20;98624.81;5073983;28;20127;-75
2023/07/22 09:14:24;;;;;;;8.27;3.23;;;;;;;44.13;20.81;98627.34;5091238;28;20597;-76
2023/07/22 09:16:50;;;;;;;8.65;3.05;;;;;;;44.08;21.17;98628.34;5074600;28;20028;-76
2023/07/22 09:19:16;;;;;;;7.38;3.58;;;;;;;44.00;21.13;98638.31;5092593;28;20027;-76
2023/07/22 09:21:42;;;;;;;5.93;2.83;;;;;;;43.89;21.37;98624.22;5074032;28;20111;-75
2023/07/22 09:24:24;;;;;;;7.90;3.13;;;;;;;43.78;21.28;98614.00;5091191;28;20063;-75
2023/07/22 09:26:50;;;;;;;10.25;2.97;;;;;;;43.69;21.80;98609.38;5074622;28;20447;-76
2023/07/22 09:29:15;;;;;;;12.30;2.97;;;;;;;43.63;22.06;98613.47;5074500;28;20115;-77
2023/07/22 09:31:51;;;;;;;10.60;3.60;;;;;;;43.50;21.78;98609.91;5091167;28;20077;-77
2023/07/22 09:34:17;;;;;;;7.32;3.22;;;;;;;43.43;21.75;98617.09;5074395;28;20024;-75
2023/07/22 09:36:56;;;;;;;12.43;3.50;;;;;;;43.24;22.22;98614.81;5092193;28;20035;-75
2023/07/22 09:39:22;;;;;;;7.00;2.92;;;;;;;43.20;22.12;98601.78;5074047;28;20031;-75
2023/07/22 09:41:48;;;;;;;5.90;2.97;;;;;;;43.14;22.71;98599.56;5073991;28;20126;-76
2023/07/22 09:44:13;;;;;;;9.87;3.43;;;;;;;43.09;22.51;98602.53;5057313;28;20138;-76
2023/07/22 09:46:39;;;;;;;9.90;3.37;;;;;;;42.93;22.75;98596.84;5090658;28;20395;-76
2023/07/22 09:49:08;;;;;;;9.37;3.17;;;;;;;42.80;22.89;98593.22;5073831;28;20039;-76
2023/07/22 09:51:38;;;;;;;9.43;3.15;;;;;;;42.77;22.68;98593.91;5090928;28;20504;-75
2023/07/22 09:54:04;;;;;;;8.20;3.33;;;;;;;42.72;22.95;98594.91;5074300;28;20028;-76
2023/07/22 09:56:29;;;;;;;8.47;3.23;;;;;;;42.63;22.60;98605.94;5078251;28;20066;-74
2023/07/22 09:58:55;;;;;;;6.60;3.30;;;;;;;42.56;22.98;98600.19;5078007;28;20115;-75
2023/07/22 10:01:24;;;;;;;9.53;3.17;;;;;;;42.49;23.12;98588.88;5095298;28;20077;-75
2023/07/22 10:03:56;;;;;;;5.47;3.03;;;;;;;42.43;23.30;98585.56;5061038;28;20036;-76
2023/07/22 10:06:27;;;;;;;7.97;3.20;;;;;;;42.38;23.62;98591.22;5094736;28;20486;-75
2023/07/22 10:08:52;;;;;;;6.30;3.10;;;;;;;42.35;23.67;98580.91;5077759;28;20032;-74
2023/07/22 10:11:18;;;;;;;6.20;3.10;;;;;;;42.26;23.59;98580.97;5095739;28;20035;-76
2023/07/22 10:13:43;;;;;;;9.17;3.30;;;;;;;42.19;23.29;98568.91;5094471;28;20125;-75
2023/07/22 10:16:09;;;;;;;12.33;3.70;;;;;;;42.15;23.72;98567.97;5111088;28;20043;-75
2023/07/22 10:18:34;;;;;;;5.83;2.83;;;;;;;42.07;23.81;98567.66;5094302;28;20027;-75
2023/07/22 10:21:00;;;;;;;8.93;3.23;;;;;;;41.97;23.82;98567.22;5094373;28;20020;-74
2023/07/22 10:23:26;;;;;;;9.70;3.50;;;;;;;41.85;23.77;98557.78;5094007;28;20040;-76
2023/07/22 10:25:52;;;;;;;12.25;3.42;;;;;;;41.71;23.73;98560.72;5077353;28;20372;-76
2023/07/22 10:28:19;;;;;;;10.55;3.53;;;;;;;41.65;23.84;98563.94;5077361;28;20068;-75
2023/07/22 10:30:44;;;;;;;11.25;3.10;;;;;;;41.50;23.87;98548.88;5060504;28;20024;-75
2023/07/22 10:33:10;;;;;;;11.87;3.17;;;;;;;41.40;24.00;98547.25;5094195;28;20032;-76
2023/07/22 10:35:44;;;;;;;8.77;3.50;;;;;;;41.26;24.14;98541.97;5077859;28;20475;-76
2023/07/22 10:38:16;;;;;;;8.70;3.17;;;;;;;41.10;23.99;98546.31;5077566;28;20038;-75
2023/07/22 10:40:45;;;;;;;9.93;3.40;;;;;;;40.98;24.33;98545.06;5093618;28;20036;-75
2023/07/22 10:43:11;;;;;;;10.43;3.80;;;;;;;40.81;24.82;98543.09;5076920;28;20039;-75
2023/07/22 10:45:41;;;;;;;9.48;3.42;;;;;;;40.71;24.54;98546.19;5076712;28;20035;-75
2023/07/22 10:48:10;;;;;;;11.13;3.70;;;;;;;40.63;25.22;98549.72;5093931;28;20027;-76
2023/07/22 10:50:39;;;;;;;6.68;3.60;;;;;;;40.57;25.11;98545.53;5059917;28;20028;-76
2023/07/22 10:53:05;;;;;;;11.02;3.70;;;;;;;40.52;25.16;98546.50;5092852;28;20043;-75
2023/07/22 10:55:30;;;;;;;7.70;3.20;;;;;;;40.42;25.20;98533.94;5094913;28;20102;-75
2023/07/22 10:58:03;;;;;;;8.05;3.42;;;;;;;40.40;25.63;98538.88;5076585;28;20032;-75
2023/07/22 11:00:29;;;;;;;11.95;4.20;;;;;;;40.34;25.80;98531.94;5060631;28;20032;-75
2023/07/22 11:03:11;;;;;;;8.82;3.38;;;;;;;40.26;25.45;98533.53;5076266;28;20048;-76
2023/07/22 11:06:03;;;;;;;9.38;3.47;;;;;;;40.19;25.58;98529.69;5092718;28;20048;-75
2023/07/22 11:08:38;;;;;;;13.18;3.70;;;;;;;40.12;25.66;98536.41;5089336;28;20044;-76
2023/07/22 11:11:03;;;;;;;11.75;3.78;;;;;;;40.04;25.42;98525.44;5059897;28;20038;-75
2023/07/22 11:13:29;;;;;;;9.30;3.75;;;;;;;39.97;25.40;98526.72;5076722;28;20036;-76
2023/07/22 11:15:59;;;;;;;7.95;3.63;;;;;;;39.89;25.37;98532.94;5094722;28;20024;-76
2023/07/22 11:18:36;;;;;;;8.93;3.53;;;;;;;39.80;25.50;98523.91;5076302;28;20059;-76
2023/07/22 11:21:02;;;;;;;10.00;3.90;;;;;;;39.71;25.68;98518.41;5110119;28;20032;-75
2023/07/22 11:23:27;;;;;;;8.93;3.88;;;;;;;39.62;25.61;98512.13;5076782;28;20042;-76
2023/07/22 11:25:53;;;;;;;13.40;4.05;;;;;;;39.50;25.92;98523.56;5076177;28;20406;-76
2023/07/22 11:28:19;;;;;;;13.38;4.38;;;;;;;39.43;25.72;98518.56;5058415;28;20093;-76